sensor_id;sensor_type;location;lat;lon;timestamp;P1;durP1;ratioP1;P2;durP2;ratioP2
37169;SDS011;23062;13.952;100.608;2023-05-21T00:03:32;30.00;;;24.00;;
37169;SDS011;23062;13.952;100.608;2023-05-21T00:07:57;32.00;;;24.00;;
37169;SDS011;23062;13.952;100.608;2023-05-21T00:12:24;31.00;;;23.00;;
37169;SDS011;23062;13.952;100.608;2023-05-21T00:16:50;31.00;;;24.00;;
37169;SDS011;23062;13.952;100.608;2023-05-21T00:21:22;28.00;;;22.00;;
37169;SDS011;23062;13.952;100.608;2023-05-21T00:25:48;31.00;;;24.00;;
37169;SDS011;23062;13.952;100.608;2023-05-21T00:30:16;33.00;;;25.00;;
37169;SDS011;23062;13.952;100.608;2023-05-21T00:34:41;34.00;;;25.00;;
37169;SDS011;23062;13.952;100.608;2023-05-21T00:39:07;31.00;;;23.00;;
37169;SDS011;23062;13.952;100.608;2023-05-21T00:43:33;34.00;;;25.00;;
37169;SDS011;23062;13.952;100.608;2023-05-21T00:48:00;32.00;;;23.00;;
37169;SDS011;23062;13.952;100.608;2023-05-21T00:52:31;33.00;;;24.00;;
37169;SDS011;23062;13.952;100.608;2023-05-21T00:56:59;34.00;;;25.00;;
37169;SDS011;23062;13.952;100.608;2023-05-21T01:01:28;31.00;;;23.00;;
37169;SDS011;23062;13.952;100.608;2023-05-21T01:05:55;28.00;;;22.00;;
37169;SDS011;23062;13.952;100.608;2023-05-21T01:10:22;30.00;;;23.00;;
37169;SDS011;23062;13.952;100.608;2023-05-21T01:14:57;29.00;;;21.00;;
37169;SDS011;23062;13.952;100.608;2023-05-21T01:19:20;32.00;;;24.00;;
37169;SDS011;23062;13.952;100.608;2023-05-21T01:23:47;32.00;;;24.00;;
37169;SDS011;23062;13.952;100.608;2023-05-21T01:28:14;32.00;;;23.00;;
37169;SDS011;23062;13.952;100.608;2023-05-21T01:37:15;30.00;;;23.00;;
37169;SDS011;23062;13.952;100.608;2023-05-21T01:41:49;31.00;;;23.00;;
37169;SDS011;23062;13.952;100.608;2023-05-21T01:46:24;34.00;;;24.00;;
37169;SDS011;23062;13.952;100.608;2023-05-21T01:50:47;27.00;;;21.00;;
37169;SDS011;23062;13.952;100.608;2023-05-21T01:55:15;33.00;;;26.00;;
37169;SDS011;23062;13.952;100.608;2023-05-21T01:59:41;28.00;;;21.00;;
37169;SDS011;23062;13.952;100.608;2023-05-21T02:04:06;31.00;;;23.00;;
37169;SDS011;23062;13.952;100.608;2023-05-21T02:08:34;27.00;;;18.67;;
37169;SDS011;23062;13.952;100.608;2023-05-21T02:12:59;26.00;;;17.33;;
37169;SDS011;23062;13.952;100.608;2023-05-21T02:17:28;30.00;;;22.00;;
37169;SDS011;23062;13.952;100.608;2023-05-21T02:22:01;28.00;;;22.00;;
37169;SDS011;23062;13.952;100.608;2023-05-21T02:26:27;29.00;;;22.00;;
37169;SDS011;23062;13.952;100.608;2023-05-21T02:33:41;28.00;;;22.00;;
37169;SDS011;23062;13.952;100.608;2023-05-21T02:38:07;30.00;;;22.00;;
37169;SDS011;23062;13.952;100.608;2023-05-21T02:42:33;28.00;;;22.00;;
37169;SDS011;23062;13.952;100.608;2023-05-21T02:47:02;28.00;;;21.00;;
37169;SDS011;23062;13.952;100.608;2023-05-21T02:51:27;32.00;;;24.00;;
37169;SDS011;23062;13.952;100.608;2023-05-21T02:55:59;30.00;;;22.00;;
37169;SDS011;23062;13.952;100.608;2023-05-21T03:00:26;30.00;;;22.00;;
37169;SDS011;23062;13.952;100.608;2023-05-21T03:04:52;29.00;;;22.00;;
37169;SDS011;23062;13.952;100.608;2023-05-21T03:09:17;28.00;;;21.00;;
37169;SDS011;23062;13.952;100.608;2023-05-21T03:13:47;25.00;;;18.00;;
37169;SDS011;23062;13.952;100.608;2023-05-21T03:18:12;27.00;;;21.00;;
37169;SDS011;23062;13.952;100.608;2023-05-21T03:22:37;27.00;;;21.00;;
37169;SDS011;23062;13.952;100.608;2023-05-21T03:27:04;30.00;;;23.00;;
37169;SDS011;23062;13.952;100.608;2023-05-21T03:31:30;33.00;;;24.00;;
37169;SDS011;23062;13.952;100.608;2023-05-21T03:35:54;28.00;;;21.00;;
37169;SDS011;23062;13.952;100.608;2023-05-21T03:40:20;30.00;;;22.00;;
37169;SDS011;23062;13.952;100.608;2023-05-21T03:44:46;28.00;;;21.00;;
37169;SDS011;23062;13.952;100.608;2023-05-21T03:49:30;30.00;;;23.00;;
37169;SDS011;23062;13.952;100.608;2023-05-21T03:58:26;30.00;;;22.00;;
37169;SDS011;23062;13.952;100.608;2023-05-21T04:02:51;29.00;;;22.00;;
37169;SDS011;23062;13.952;100.608;2023-05-21T04:07:21;30.00;;;22.00;;
37169;SDS011;23062;13.952;100.608;2023-05-21T04:16:15;32.00;;;24.00;;
37169;SDS011;23062;13.952;100.608;2023-05-21T04:21:39;31.00;;;22.00;;
37169;SDS011;23062;13.952;100.608;2023-05-21T04:26:06;29.00;;;22.00;;
37169;SDS011;23062;13.952;100.608;2023-05-21T04:30:33;31.00;;;23.00;;
37169;SDS011;23062;13.952;100.608;2023-05-21T04:35:00;36.00;;;27.00;;
37169;SDS011;23062;13.952;100.608;2023-05-21T04:39:25;35.00;;;26.00;;
37169;SDS011;23062;13.952;100.608;2023-05-21T04:43:53;34.00;;;25.00;;
37169;SDS011;23062;13.952;100.608;2023-05-21T04:48:21;26.00;;;18.67;;
37169;SDS011;23062;13.952;100.608;2023-05-21T04:52:48;30.00;;;22.00;;
37169;SDS011;23062;13.952;100.608;2023-05-21T04:57:17;28.00;;;21.00;;
37169;SDS011;23062;13.952;100.608;2023-05-21T05:01:45;27.00;;;18.67;;
37169;SDS011;23062;13.952;100.608;2023-05-21T05:06:11;26.00;;;17.33;;
37169;SDS011;23062;13.952;100.608;2023-05-21T05:10:37;27.00;;;20.00;;
37169;SDS011;23062;13.952;100.608;2023-05-21T05:15:04;26.00;;;20.00;;
37169;SDS011;23062;13.952;100.608;2023-05-21T05:19:29;27.00;;;20.00;;
37169;SDS011;23062;13.952;100.608;2023-05-21T05:23:55;28.00;;;21.00;;
37169;SDS011;23062;13.952;100.608;2023-05-21T05:28:21;26.00;;;20.00;;
37169;SDS011;23062;13.952;100.608;2023-05-21T05:32:46;26.00;;;20.00;;
37169;SDS011;23062;13.952;100.608;2023-05-21T05:37:12;28.00;;;20.00;;
37169;SDS011;23062;13.952;100.608;2023-05-21T05:41:37;31.00;;;23.00;;
37169;SDS011;23062;13.952;100.608;2023-05-21T05:46:06;26.00;;;19.00;;
37169;SDS011;23062;13.952;100.608;2023-05-21T05:50:33;33.00;;;24.00;;
37169;SDS011;23062;13.952;100.608;2023-05-21T05:55:00;27.00;;;21.00;;
37169;SDS011;23062;13.952;100.608;2023-05-21T05:59:26;24.00;;;19.00;;
37169;SDS011;23062;13.952;100.608;2023-05-21T06:03:52;27.00;;;21.00;;
37169;SDS011;23062;13.952;100.608;2023-05-21T06:11:58;27.00;;;21.00;;
37169;SDS011;23062;13.952;100.608;2023-05-21T06:16:33;29.00;;;21.00;;
37169;SDS011;23062;13.952;100.608;2023-05-21T06:20:58;31.00;;;22.00;;
37169;SDS011;23062;13.952;100.608;2023-05-21T06:25:31;27.00;;;20.00;;
37169;SDS011;23062;13.952;100.608;2023-05-21T06:29:59;28.00;;;22.00;;
37169;SDS011;23062;13.952;100.608;2023-05-21T06:34:33;31.00;;;22.00;;
37169;SDS011;23062;13.952;100.608;2023-05-21T06:38:58;29.00;;;22.00;;
37169;SDS011;23062;13.952;100.608;2023-05-21T06:43:33;25.00;;;19.00;;
37169;SDS011;23062;13.952;100.608;2023-05-21T06:48:02;26.00;;;20.00;;
37169;SDS011;23062;13.952;100.608;2023-05-21T06:52:28;24.00;;;18.00;;
37169;SDS011;23062;13.952;100.608;2023-05-21T06:56:57;29.00;;;21.00;;
37169;SDS011;23062;13.952;100.608;2023-05-21T07:01:22;27.00;;;21.00;;
37169;SDS011;23062;13.952;100.608;2023-05-21T07:05:55;28.00;;;22.00;;
37169;SDS011;23062;13.952;100.608;2023-05-21T07:10:23;28.00;;;20.00;;
37169;SDS011;23062;13.952;100.608;2023-05-21T07:14:53;29.00;;;22.00;;
37169;SDS011;23062;13.952;100.608;2023-05-21T07:19:24;29.00;;;22.00;;
37169;SDS011;23062;13.952;100.608;2023-05-21T07:23:49;30.00;;;22.00;;
37169;SDS011;23062;13.952;100.608;2023-05-21T07:28:17;31.00;;;23.00;;
37169;SDS011;23062;13.952;100.608;2023-05-21T07:32:42;31.00;;;23.00;;
37169;SDS011;23062;13.952;100.608;2023-05-21T07:37:08;31.00;;;23.00;;
37169;SDS011;23062;13.952;100.608;2023-05-21T07:41:36;30.00;;;22.00;;
37169;SDS011;23062;13.952;100.608;2023-05-21T07:46:02;31.00;;;20.80;;
37169;SDS011;23062;13.952;100.608;2023-05-21T07:50:27;30.00;;;23.00;;
37169;SDS011;23062;13.952;100.608;2023-05-21T07:54:59;30.00;;;23.00;;
37169;SDS011;23062;13.952;100.608;2023-05-21T07:59:28;32.00;;;24.00;;
37169;SDS011;23062;13.952;100.608;2023-05-21T08:03:53;31.00;;;23.00;;
37169;SDS011;23062;13.952;100.608;2023-05-21T08:08:19;31.00;;;24.00;;
37169;SDS011;23062;13.952;100.608;2023-05-21T08:12:46;32.00;;;23.00;;
37169;SDS011;23062;13.952;100.608;2023-05-21T08:17:12;32.00;;;19.93;;
37169;SDS011;23062;13.952;100.608;2023-05-21T08:21:37;35.00;;;25.00;;
37169;SDS011;23062;13.952;100.608;2023-05-21T08:26:02;29.00;;;22.00;;
37169;SDS011;23062;13.952;100.608;2023-05-21T08:30:28;27.00;;;21.00;;
37169;SDS011;23062;13.952;100.608;2023-05-21T08:34:54;33.00;;;25.00;;
37169;SDS011;23062;13.952;100.608;2023-05-21T08:39:21;29.00;;;22.00;;
37169;SDS011;23062;13.952;100.608;2023-05-21T08:43:50;29.00;;;23.00;;
37169;SDS011;23062;13.952;100.608;2023-05-21T08:48:19;27.00;;;20.00;;
37169;SDS011;23062;13.952;100.608;2023-05-21T08:52:47;30.00;;;23.00;;
37169;SDS011;23062;13.952;100.608;2023-05-21T08:57:14;32.00;;;24.00;;
37169;SDS011;23062;13.952;100.608;2023-05-21T09:01:46;31.00;;;24.00;;
37169;SDS011;23062;13.952;100.608;2023-05-21T09:06:13;26.00;;;20.00;;
37169;SDS011;23062;13.952;100.608;2023-05-21T09:10:45;36.00;;;26.00;;
37169;SDS011;23062;13.952;100.608;2023-05-21T09:15:16;36.00;;;27.00;;
37169;SDS011;23062;13.952;100.608;2023-05-21T09:24:36;70.00;;;52.00;;
37169;SDS011;23062;13.952;100.608;2023-05-21T09:29:01;116.00;;;87.00;;
37169;SDS011;23062;13.952;100.608;2023-05-21T09:33:27;50.00;;;37.00;;
37169;SDS011;23062;13.952;100.608;2023-05-21T09:37:56;37.00;;;29.00;;
37169;SDS011;23062;13.952;100.608;2023-05-21T09:42:29;32.00;;;25.00;;
37169;SDS011;23062;13.952;100.608;2023-05-21T09:46:56;37.00;;;27.00;;
37169;SDS011;23062;13.952;100.608;2023-05-21T09:51:24;34.00;;;26.00;;
37169;SDS011;23062;13.952;100.608;2023-05-21T09:55:52;38.00;;;28.00;;
37169;SDS011;23062;13.952;100.608;2023-05-21T10:00:20;38.00;;;28.00;;
37169;SDS011;23062;13.952;100.608;2023-05-21T10:04:48;30.00;;;23.00;;
37169;SDS011;23062;13.952;100.608;2023-05-21T10:09:17;32.00;;;24.00;;
37169;SDS011;23062;13.952;100.608;2023-05-21T10:13:45;37.00;;;27.00;;
37169;SDS011;23062;13.952;100.608;2023-05-21T10:18:20;33.00;;;25.00;;
37169;SDS011;23062;13.952;100.608;2023-05-21T10:22:50;29.00;;;22.00;;
37169;SDS011;23062;13.952;100.608;2023-05-21T10:27:25;29.00;;;22.00;;
37169;SDS011;23062;13.952;100.608;2023-05-21T10:31:53;30.00;;;22.00;;
37169;SDS011;23062;13.952;100.608;2023-05-21T10:36:17;43.00;;;32.00;;
37169;SDS011;23062;13.952;100.608;2023-05-21T10:40:47;107.00;;;85.00;;
37169;SDS011;23062;13.952;100.608;2023-05-21T10:50:07;58.00;;;46.00;;
37169;SDS011;23062;13.952;100.608;2023-05-21T10:54:56;61.00;;;45.00;;
37169;SDS011;23062;13.952;100.608;2023-05-21T11:09:33;47.00;;;34.00;;
37169;SDS011;23062;13.952;100.608;2023-05-21T11:14:02;38.00;;;28.00;;
37169;SDS011;23062;13.952;100.608;2023-05-21T11:23:00;29.00;;;21.00;;
37169;SDS011;23062;13.952;100.608;2023-05-21T11:27:33;27.00;;;21.00;;
37169;SDS011;23062;13.952;100.608;2023-05-21T11:32:00;25.00;;;18.00;;
37169;SDS011;23062;13.952;100.608;2023-05-21T11:36:29;25.00;;;19.00;;
37169;SDS011;23062;13.952;100.608;2023-05-21T11:41:05;23.00;;;17.00;;
37169;SDS011;23062;13.952;100.608;2023-05-21T11:45:38;27.00;;;19.00;;
37169;SDS011;23062;13.952;100.608;2023-05-21T11:50:05;25.00;;;19.00;;
37169;SDS011;23062;13.952;100.608;2023-05-21T11:54:32;27.00;;;16.47;;
37169;SDS011;23062;13.952;100.608;2023-05-21T11:59:02;24.00;;;19.00;;
37169;SDS011;23062;13.952;100.608;2023-05-21T12:03:27;24.00;;;17.00;;
37169;SDS011;23062;13.952;100.608;2023-05-21T12:07:55;21.00;;;16.00;;
37169;SDS011;23062;13.952;100.608;2023-05-21T12:12:20;24.00;;;18.00;;
37169;SDS011;23062;13.952;100.608;2023-05-21T12:16:47;25.00;;;18.00;;
37169;SDS011;23062;13.952;100.608;2023-05-21T12:21:15;22.00;;;16.00;;
37169;SDS011;23062;13.952;100.608;2023-05-21T12:25:41;23.00;;;16.00;;
37169;SDS011;23062;13.952;100.608;2023-05-21T12:30:05;25.00;;;18.00;;
37169;SDS011;23062;13.952;100.608;2023-05-21T12:34:37;21.00;;;15.00;;
37169;SDS011;23062;13.952;100.608;2023-05-21T12:39:07;22.00;;;17.00;;
37169;SDS011;23062;13.952;100.608;2023-05-21T12:43:32;21.00;;;15.00;;
37169;SDS011;23062;13.952;100.608;2023-05-21T12:48:01;27.00;;;19.00;;
37169;SDS011;23062;13.952;100.608;2023-05-21T12:52:25;25.00;;;18.00;;
37169;SDS011;23062;13.952;100.608;2023-05-21T12:56:57;24.00;;;19.00;;
37169;SDS011;23062;13.952;100.608;2023-05-21T13:01:29;25.00;;;19.00;;
37169;SDS011;23062;13.952;100.608;2023-05-21T13:06:01;31.00;;;23.00;;
37169;SDS011;23062;13.952;100.608;2023-05-21T13:10:27;26.00;;;20.00;;
37169;SDS011;23062;13.952;100.608;2023-05-21T13:14:57;27.00;;;20.00;;
37169;SDS011;23062;13.952;100.608;2023-05-21T13:19:21;25.00;;;19.00;;
37169;SDS011;23062;13.952;100.608;2023-05-21T13:23:50;25.00;;;18.00;;
37169;SDS011;23062;13.952;100.608;2023-05-21T13:28:15;25.00;;;19.00;;
37169;SDS011;23062;13.952;100.608;2023-05-21T13:32:39;25.00;;;19.00;;
37169;SDS011;23062;13.952;100.608;2023-05-21T13:37:05;24.00;;;18.00;;
37169;SDS011;23062;13.952;100.608;2023-05-21T13:41:30;25.00;;;18.00;;
37169;SDS011;23062;13.952;100.608;2023-05-21T13:45:57;26.00;;;19.00;;
37169;SDS011;23062;13.952;100.608;2023-05-21T13:50:22;27.00;;;19.00;;
37169;SDS011;23062;13.952;100.608;2023-05-21T13:54:47;24.00;;;19.00;;
37169;SDS011;23062;13.952;100.608;2023-05-21T13:59:12;23.00;;;18.00;;
37169;SDS011;23062;13.952;100.608;2023-05-21T14:03:36;23.00;;;17.00;;
37169;SDS011;23062;13.952;100.608;2023-05-21T14:08:01;25.00;;;18.00;;
37169;SDS011;23062;13.952;100.608;2023-05-21T14:12:29;24.00;;;18.00;;
37169;SDS011;23062;13.952;100.608;2023-05-21T14:16:54;25.00;;;18.00;;
37169;SDS011;23062;13.952;100.608;2023-05-21T14:21:19;23.00;;;17.00;;
37169;SDS011;23062;13.952;100.608;2023-05-21T14:25:45;24.00;;;17.00;;
37169;SDS011;23062;13.952;100.608;2023-05-21T14:30:10;24.00;;;17.00;;
37169;SDS011;23062;13.952;100.608;2023-05-21T14:34:35;25.00;;;19.00;;
37169;SDS011;23062;13.952;100.608;2023-05-21T14:39:01;27.00;;;19.00;;
37169;SDS011;23062;13.952;100.608;2023-05-21T14:43:26;27.00;;;21.00;;
37169;SDS011;23062;13.952;100.608;2023-05-21T14:47:51;26.00;;;19.00;;
37169;SDS011;23062;13.952;100.608;2023-05-21T14:52:20;27.00;;;21.00;;
37169;SDS011;23062;13.952;100.608;2023-05-21T14:56:45;28.00;;;21.00;;
37169;SDS011;23062;13.952;100.608;2023-05-21T15:01:13;26.00;;;19.00;;
37169;SDS011;23062;13.952;100.608;2023-05-21T15:05:39;27.00;;;21.00;;
37169;SDS011;23062;13.952;100.608;2023-05-21T15:10:03;26.00;;;20.00;;
37169;SDS011;23062;13.952;100.608;2023-05-21T15:14:29;23.00;;;18.00;;
37169;SDS011;23062;13.952;100.608;2023-05-21T15:18:53;26.00;;;19.00;;
37169;SDS011;23062;13.952;100.608;2023-05-21T15:23:18;25.00;;;18.00;;
37169;SDS011;23062;13.952;100.608;2023-05-21T15:27:43;27.00;;;20.00;;
37169;SDS011;23062;13.952;100.608;2023-05-21T15:32:08;25.00;;;18.00;;
37169;SDS011;23062;13.952;100.608;2023-05-21T15:36:33;25.00;;;18.00;;
37169;SDS011;23062;13.952;100.608;2023-05-21T15:41:01;23.00;;;17.00;;
37169;SDS011;23062;13.952;100.608;2023-05-21T15:45:27;24.00;;;19.00;;
37169;SDS011;23062;13.952;100.608;2023-05-21T15:49:52;26.00;;;16.47;;
37169;SDS011;23062;13.952;100.608;2023-05-21T15:54:17;25.00;;;18.00;;
37169;SDS011;23062;13.952;100.608;2023-05-21T15:58:42;22.00;;;17.00;;
37169;SDS011;23062;13.952;100.608;2023-05-21T16:03:06;26.00;;;20.00;;
37169;SDS011;23062;13.952;100.608;2023-05-21T16:07:32;24.00;;;17.00;;
37169;SDS011;23062;13.952;100.608;2023-05-21T16:11:57;26.00;;;19.00;;
37169;SDS011;23062;13.952;100.608;2023-05-21T16:16:23;26.00;;;19.00;;
37169;SDS011;23062;13.952;100.608;2023-05-21T16:20:48;25.00;;;18.00;;
37169;SDS011;23062;13.952;100.608;2023-05-21T16:25:13;27.00;;;19.00;;
37169;SDS011;23062;13.952;100.608;2023-05-21T16:29:40;25.00;;;18.00;;
37169;SDS011;23062;13.952;100.608;2023-05-21T16:34:05;27.00;;;21.00;;
37169;SDS011;23062;13.952;100.608;2023-05-21T16:38:32;26.00;;;19.00;;
37169;SDS011;23062;13.952;100.608;2023-05-21T16:42:56;27.00;;;19.00;;
37169;SDS011;23062;13.952;100.608;2023-05-21T16:47:21;21.00;;;16.00;;
37169;SDS011;23062;13.952;100.608;2023-05-21T16:51:46;28.00;;;22.00;;
37169;SDS011;23062;13.952;100.608;2023-05-21T16:56:11;28.00;;;20.00;;
37169;SDS011;23062;13.952;100.608;2023-05-21T17:00:39;26.00;;;20.00;;
37169;SDS011;23062;13.952;100.608;2023-05-21T17:05:04;27.00;;;19.00;;
37169;SDS011;23062;13.952;100.608;2023-05-21T17:09:29;26.00;;;19.00;;
37169;SDS011;23062;13.952;100.608;2023-05-21T17:13:54;26.00;;;20.00;;
37169;SDS011;23062;13.952;100.608;2023-05-21T17:18:19;24.00;;;19.00;;
37169;SDS011;23062;13.952;100.608;2023-05-21T17:22:47;25.00;;;20.00;;
37169;SDS011;23062;13.952;100.608;2023-05-21T17:27:15;25.00;;;19.00;;
37169;SDS011;23062;13.952;100.608;2023-05-21T17:31:40;27.00;;;19.00;;
37169;SDS011;23062;13.952;100.608;2023-05-21T17:36:05;24.00;;;19.00;;
37169;SDS011;23062;13.952;100.608;2023-05-21T17:40:30;26.00;;;19.00;;
37169;SDS011;23062;13.952;100.608;2023-05-21T17:44:59;29.00;;;21.00;;
37169;SDS011;23062;13.952;100.608;2023-05-21T17:49:28;25.00;;;19.00;;
37169;SDS011;23062;13.952;100.608;2023-05-21T17:53:53;25.00;;;18.00;;
37169;SDS011;23062;13.952;100.608;2023-05-21T17:58:22;28.00;;;20.00;;
37169;SDS011;23062;13.952;100.608;2023-05-21T18:02:46;29.00;;;21.00;;
37169;SDS011;23062;13.952;100.608;2023-05-21T18:07:11;26.00;;;20.00;;
37169;SDS011;23062;13.952;100.608;2023-05-21T18:11:37;25.00;;;18.00;;
37169;SDS011;23062;13.952;100.608;2023-05-21T18:16:02;26.00;;;19.00;;
37169;SDS011;23062;13.952;100.608;2023-05-21T18:20:27;23.00;;;18.00;;
37169;SDS011;23062;13.952;100.608;2023-05-21T18:24:55;26.00;;;19.00;;
37169;SDS011;23062;13.952;100.608;2023-05-21T18:29:19;23.00;;;18.00;;
37169;SDS011;23062;13.952;100.608;2023-05-21T18:33:48;26.00;;;19.00;;
37169;SDS011;23062;13.952;100.608;2023-05-21T18:38:13;27.00;;;19.00;;
37169;SDS011;23062;13.952;100.608;2023-05-21T18:42:40;25.00;;;18.00;;
37169;SDS011;23062;13.952;100.608;2023-05-21T18:47:05;25.00;;;18.00;;
37169;SDS011;23062;13.952;100.608;2023-05-21T18:51:30;21.00;;;16.00;;
37169;SDS011;23062;13.952;100.608;2023-05-21T18:55:54;23.00;;;18.00;;
37169;SDS011;23062;13.952;100.608;2023-05-21T19:00:19;20.00;;;15.00;;
37169;SDS011;23062;13.952;100.608;2023-05-21T19:04:44;26.00;;;20.00;;
37169;SDS011;23062;13.952;100.608;2023-05-21T19:09:09;23.00;;;18.00;;
37169;SDS011;23062;13.952;100.608;2023-05-21T19:13:34;21.00;;;16.00;;
37169;SDS011;23062;13.952;100.608;2023-05-21T19:17:59;25.00;;;18.00;;
37169;SDS011;23062;13.952;100.608;2023-05-21T19:22:24;25.00;;;19.00;;
37169;SDS011;23062;13.952;100.608;2023-05-21T19:26:50;25.00;;;17.73;;
37169;SDS011;23062;13.952;100.608;2023-05-21T19:31:15;21.00;;;13.87;;
37169;SDS011;23062;13.952;100.608;2023-05-21T19:35:42;20.00;;;16.00;;
37169;SDS011;23062;13.952;100.608;2023-05-21T19:40:09;22.00;;;17.00;;
37169;SDS011;23062;13.952;100.608;2023-05-21T19:44:34;24.00;;;18.00;;
37169;SDS011;23062;13.952;100.608;2023-05-21T19:49:03;21.00;;;16.00;;
37169;SDS011;23062;13.952;100.608;2023-05-21T19:53:30;24.00;;;18.00;;
37169;SDS011;23062;13.952;100.608;2023-05-21T19:57:55;23.00;;;17.00;;
37169;SDS011;23062;13.952;100.608;2023-05-21T20:02:20;23.00;;;17.00;;
37169;SDS011;23062;13.952;100.608;2023-05-21T20:06:50;25.00;;;15.60;;
37169;SDS011;23062;13.952;100.608;2023-05-21T20:11:14;28.00;;;20.00;;
37169;SDS011;23062;13.952;100.608;2023-05-21T20:15:39;25.00;;;19.00;;
37169;SDS011;23062;13.952;100.608;2023-05-21T20:20:04;28.00;;;22.00;;
37169;SDS011;23062;13.952;100.608;2023-05-21T20:24:30;34.00;;;25.00;;
37169;SDS011;23062;13.952;100.608;2023-05-21T20:28:55;28.00;;;22.00;;
37169;SDS011;23062;13.952;100.608;2023-05-21T20:33:20;28.00;;;22.00;;
37169;SDS011;23062;13.952;100.608;2023-05-21T20:37:48;32.00;;;24.00;;
37169;SDS011;23062;13.952;100.608;2023-05-21T20:42:13;28.00;;;21.00;;
37169;SDS011;23062;13.952;100.608;2023-05-21T20:46:38;29.00;;;22.00;;
37169;SDS011;23062;13.952;100.608;2023-05-21T20:51:03;29.00;;;23.00;;
37169;SDS011;23062;13.952;100.608;2023-05-21T20:55:29;30.00;;;23.00;;
37169;SDS011;23062;13.952;100.608;2023-05-21T20:59:55;27.00;;;21.00;;
37169;SDS011;23062;13.952;100.608;2023-05-21T21:04:19;2841.00;;;2118.00;;
37169;SDS011;23062;13.952;100.608;2023-05-21T21:08:45;2696.00;;;2096.00;;
37169;SDS011;23062;13.952;100.608;2023-05-21T21:13:11;1688.00;;;1297.00;;
37169;SDS011;23062;13.952;100.608;2023-05-21T21:17:36;2089.00;;;1633.00;;
37169;SDS011;23062;13.952;100.608;2023-05-21T21:22:00;50.00;;;39.00;;
37169;SDS011;23062;13.952;100.608;2023-05-21T21:26:25;170.00;;;126.00;;
37169;SDS011;23062;13.952;100.608;2023-05-21T21:30:52;80.00;;;63.00;;
37169;SDS011;23062;13.952;100.608;2023-05-21T21:35:17;284.00;;;221.00;;
37169;SDS011;23062;13.952;100.608;2023-05-21T21:39:41;102.00;;;77.00;;
37169;SDS011;23062;13.952;100.608;2023-05-21T21:44:08;62.00;;;48.00;;
37169;SDS011;23062;13.952;100.608;2023-05-21T21:48:33;21.00;;;16.00;;
37169;SDS011;23062;13.952;100.608;2023-05-21T21:52:58;22.00;;;16.00;;
37169;SDS011;23062;13.952;100.608;2023-05-21T21:57:26;24.00;;;18.00;;
37169;SDS011;23062;13.952;100.608;2023-05-21T22:01:51;23.00;;;16.00;;
37169;SDS011;23062;13.952;100.608;2023-05-21T22:06:16;43.00;;;32.00;;
37169;SDS011;23062;13.952;100.608;2023-05-21T22:10:41;1509.00;;;1160.00;;
37169;SDS011;23062;13.952;100.608;2023-05-21T22:15:06;20.00;;;15.00;;
37169;SDS011;23062;13.952;100.608;2023-05-21T22:19:30;22.00;;;17.00;;
37169;SDS011;23062;13.952;100.608;2023-05-21T22:23:56;745.00;;;485.33;;
37169;SDS011;23062;13.952;100.608;2023-05-21T22:28:21;22.00;;;17.00;;
37169;SDS011;23062;13.952;100.608;2023-05-21T22:32:47;20.00;;;15.00;;
37169;SDS011;23062;13.952;100.608;2023-05-21T22:37:12;23.00;;;16.00;;
37169;SDS011;23062;13.952;100.608;2023-05-21T22:41:37;657.00;;;524.00;;
37169;SDS011;23062;13.952;100.608;2023-05-21T22:46:01;26.00;;;19.00;;
37169;SDS011;23062;13.952;100.608;2023-05-21T22:50:26;88.00;;;70.00;;
37169;SDS011;23062;13.952;100.608;2023-05-21T22:54:54;20.00;;;16.00;;
37169;SDS011;23062;13.952;100.608;2023-05-21T22:59:19;67.00;;;53.00;;
37169;SDS011;23062;13.952;100.608;2023-05-21T23:03:43;72.00;;;56.00;;
37169;SDS011;23062;13.952;100.608;2023-05-21T23:08:08;22.00;;;16.00;;
37169;SDS011;23062;13.952;100.608;2023-05-21T23:12:32;233.00;;;174.00;;
37169;SDS011;23062;13.952;100.608;2023-05-21T23:16:57;1240.00;;;934.00;;
37169;SDS011;23062;13.952;100.608;2023-05-21T23:21:28;21.00;;;16.00;;
37169;SDS011;23062;13.952;100.608;2023-05-21T23:25:53;26.00;;;19.00;;
37169;SDS011;23062;13.952;100.608;2023-05-21T23:30:19;2804.00;;;2130.00;;
37169;SDS011;23062;13.952;100.608;2023-05-21T23:34:43;2348.00;;;1789.00;;
37169;SDS011;23062;13.952;100.608;2023-05-21T23:39:08;2298.00;;;1805.00;;
37169;SDS011;23062;13.952;100.608;2023-05-21T23:43:33;2304.00;;;1787.00;;
37169;SDS011;23062;13.952;100.608;2023-05-21T23:47:59;2784.00;;;2083.00;;
37169;SDS011;23062;13.952;100.608;2023-05-21T23:52:25;2711.00;;;2117.00;;
37169;SDS011;23062;13.952;100.608;2023-05-21T23:56:50;2734.00;;;2114.00;;
